Time;durP1;ratioP1;P1;durP2;ratioP2;P2;SDS_P1;SDS_P2;PMS_P1;PMS_P2;Temp;Humidity;BMP_temperature;BMP_pressure;BME280_temperature;BME280_humidity;BME280_pressure;Samples;Min_cycle;Max_cycle;Signal;HPM_P1;HPM_P2
2024/04/04 00:01:10;;;;;;;1.25;0.70;;;;;;;;;;5110505;28;20024;-56
2024/04/04 00:03:38;;;;;;;1.50;0.70;;;;;;;;;;5110770;28;20082;-56
2024/04/04 00:06:06;;;;;;;1.45;0.70;;;;;;;;;;5110215;28;20163;-56
2024/04/04 00:08:33;;;;;;;2.42;0.80;;;;;;;;;;5110648;28;20042;-53
2024/04/04 00:11:11;;;;;;;1.25;0.80;;;;;;;;;;5107674;28;20100;-58
2024/04/04 00:13:36;;;;;;;1.67;0.63;;;;;;;;;;5109145;28;20047;-61
2024/04/04 00:16:01;;;;;;;2.38;0.63;;;;;;;;;;5109502;28;20096;-60
2024/04/04 00:18:27;;;;;;;1.50;0.80;;;;;;;;;;5110455;28;20039;-61
2024/04/04 00:20:52;;;;;;;1.63;0.70;;;;;;;;;;5110239;28;20080;-60
2024/04/04 00:23:17;;;;;;;2.08;0.70;;;;;;;;;;5109455;28;20118;-53
2024/04/04 00:25:43;;;;;;;1.17;0.65;;;;;;;;;;5110336;28;20076;-57
2024/04/04 00:28:08;;;;;;;0.85;0.47;;;;;;;;;;5110184;28;20241;-57
2024/04/04 00:30:34;;;;;;;1.10;0.63;;;;;;;;;;5109955;28;20039;-56
2024/04/04 00:32:59;;;;;;;2.80;0.90;;;;;;;;;;5110217;28;20071;-56
2024/04/04 00:35:25;;;;;;;1.38;0.77;;;;;;;;;;5110416;28;20024;-54
2024/04/04 00:37:51;;;;;;;1.40;0.70;;;;;;;;;;5109671;28;20651;-51
2024/04/04 00:40:16;;;;;;;0.80;0.50;;;;;;;;;;5109928;28;20043;-57
2024/04/04 00:42:42;;;;;;;2.08;0.70;;;;;;;;;;5110417;28;20062;-56
2024/04/04 00:45:07;;;;;;;1.38;0.65;;;;;;;;;;5110036;28;20058;-54
2024/04/04 00:47:32;;;;;;;0.90;0.50;;;;;;;;;;5110093;28;20036;-55
2024/04/04 00:49:58;;;;;;;2.60;0.82;;;;;;;;;;5109538;28;20047;-56
2024/04/04 00:52:23;;;;;;;1.45;0.68;;;;;;;;;;5113868;28;20486;-54
2024/04/04 00:54:49;;;;;;;1.90;0.70;;;;;;;;;;5113349;28;20088;-57
2024/04/04 00:57:15;;;;;;;1.25;0.60;;;;;;;;;;5114017;28;20032;-57
2024/04/04 00:59:40;;;;;;;1.10;0.52;;;;;;;;;;5117989;27;20027;-55
2024/04/04 01:02:05;;;;;;;1.15;0.70;;;;;;;;;;5112647;28;20563;-59
2024/04/04 01:04:31;;;;;;;1.75;0.70;;;;;;;;;;5113655;28;20069;-56
2024/04/04 01:06:56;;;;;;;1.17;0.63;;;;;;;;;;5113728;28;20073;-56
2024/04/04 01:09:22;;;;;;;0.68;0.60;;;;;;;;;;5113356;27;20411;-50
2024/04/04 01:11:47;;;;;;;0.80;0.50;;;;;;;;;;5113292;28;20028;-58
2024/04/04 01:14:13;;;;;;;0.88;0.50;;;;;;;;;;5113229;28;20047;-56
2024/04/04 01:16:38;;;;;;;1.23;0.65;;;;;;;;;;5113104;28;20542;-56
2024/04/04 01:19:04;;;;;;;1.10;0.60;;;;;;;;;;5113060;28;20101;-54
2024/04/04 01:21:29;;;;;;;1.35;0.57;;;;;;;;;;5113197;28;20036;-57
2024/04/04 01:23:55;;;;;;;1.13;0.60;;;;;;;;;;5113292;28;20115;-55
2024/04/04 01:26:20;;;;;;;0.77;0.52;;;;;;;;;;5112669;28;20527;-57
2024/04/04 01:28:45;;;;;;;1.42;0.65;;;;;;;;;;5113021;28;20104;-58
2024/04/04 01:31:11;;;;;;;1.02;0.60;;;;;;;;;;5113161;28;20032;-59
2024/04/04 01:33:36;;;;;;;1.20;0.63;;;;;;;;;;5113062;28;20023;-58
2024/04/04 01:36:02;;;;;;;0.93;0.50;;;;;;;;;;5112861;28;20687;-52
2024/04/04 01:38:27;;;;;;;1.65;0.80;;;;;;;;;;5111892;28;20441;-57
2024/04/04 01:40:53;;;;;;;0.98;0.55;;;;;;;;;;5113015;28;20156;-56
2024/04/04 01:43:19;;;;;;;0.80;0.57;;;;;;;;;;5112655;28;20042;-56
2024/04/04 01:45:44;;;;;;;0.95;0.60;;;;;;;;;;5112945;28;20032;-57
2024/04/04 01:48:09;;;;;;;0.98;0.60;;;;;;;;;;5112652;28;20451;-56
2024/04/04 01:50:35;;;;;;;0.65;0.50;;;;;;;;;;5112432;28;20499;-57
2024/04/04 01:53:00;;;;;;;1.50;0.60;;;;;;;;;;5110774;28;20036;-53
2024/04/04 01:55:31;;;;;;;0.88;0.57;;;;;;;;;;5112401;28;20033;-54
2024/04/04 01:57:57;;;;;;;1.42;0.65;;;;;;;;;;5115168;27;20151;-56
2024/04/04 02:00:23;;;;;;;1.38;0.40;;;;;;;;;;5118900;27;20057;-57
2024/04/04 02:02:48;;;;;;;0.98;0.50;;;;;;;;;;5111664;28;20067;-55
2024/04/04 02:05:13;;;;;;;1.15;0.65;;;;;;;;;;5112016;28;20119;-56
2024/04/04 02:07:39;;;;;;;1.20;0.50;;;;;;;;;;5112346;28;20051;-53
2024/04/04 02:10:05;;;;;;;0.65;0.40;;;;;;;;;;5112250;28;20356;-55
2024/04/04 02:12:31;;;;;;;0.95;0.50;;;;;;;;;;5112179;28;20684;-53
2024/04/04 02:14:56;;;;;;;1.23;0.60;;;;;;;;;;5110630;28;20043;-55
2024/04/04 02:17:23;;;;;;;1.42;0.60;;;;;;;;;;5112234;28;20028;-58
2024/04/04 02:19:48;;;;;;;1.17;0.50;;;;;;;;;;5112110;28;20608;-56
2024/04/04 02:22:13;;;;;;;0.90;0.52;;;;;;;;;;5111619;28;20050;-56
2024/04/04 02:24:38;;;;;;;2.17;0.60;;;;;;;;;;5112041;28;20470;-57
2024/04/04 02:27:04;;;;;;;0.68;0.40;;;;;;;;;;5112083;28;20114;-55
2024/04/04 02:29:29;;;;;;;1.35;0.50;;;;;;;;;;5111458;28;20122;-58
2024/04/04 02:31:54;;;;;;;0.82;0.52;;;;;;;;;;5112390;28;20050;-56
2024/04/04 02:34:20;;;;;;;0.88;0.30;;;;;;;;;;5111962;28;20035;-55
2024/04/04 02:36:45;;;;;;;0.90;0.50;;;;;;;;;;5111637;28;20497;-57
2024/04/04 02:39:13;;;;;;;0.52;0.40;;;;;;;;;;5111678;28;20032;-56
2024/04/04 02:41:40;;;;;;;1.13;0.52;;;;;;;;;;5100785;28;20036;-58
2024/04/04 02:44:05;;;;;;;0.45;0.40;;;;;;;;;;5110839;28;20035;-58
2024/04/04 02:46:31;;;;;;;0.43;0.30;;;;;;;;;;5111386;28;20372;-53
2024/04/04 02:48:57;;;;;;;1.17;0.50;;;;;;;;;;5111526;28;20051;-56
2024/04/04 02:51:22;;;;;;;0.82;0.50;;;;;;;;;;5111521;28;20413;-55
2024/04/04 02:53:48;;;;;;;0.90;0.50;;;;;;;;;;5111209;28;20115;-56
2024/04/04 02:56:13;;;;;;;0.55;0.40;;;;;;;;;;5111349;28;20031;-53
2024/04/04 02:58:38;;;;;;;1.60;0.50;;;;;;;;;;5116384;27;20039;-56
2024/04/04 03:01:04;;;;;;;1.08;0.50;;;;;;;;;;5111153;28;20122;-56
2024/04/04 03:03:29;;;;;;;0.60;0.40;;;;;;;;;;5111405;28;20114;-56
2024/04/04 03:05:55;;;;;;;0.65;0.40;;;;;;;;;;5111277;28;20043;-53
2024/04/04 03:08:20;;;;;;;0.47;0.43;;;;;;;;;;5111278;28;20084;-55
2024/04/04 03:10:45;;;;;;;0.73;0.47;;;;;;;;;;5110392;28;20039;-57
2024/04/04 03:13:11;;;;;;;1.08;0.50;;;;;;;;;;5111005;28;20032;-52
2024/04/04 03:15:36;;;;;;;0.68;0.40;;;;;;;;;;5111139;28;20039;-54
2024/04/04 03:18:01;;;;;;;0.73;0.50;;;;;;;;;;5110221;28;20043;-56
2024/04/04 03:20:27;;;;;;;0.80;0.50;;;;;;;;;;5111151;28;20039;-54
2024/04/04 03:22:52;;;;;;;0.95;0.52;;;;;;;;;;5111089;28;20027;-58
2024/04/04 03:25:17;;;;;;;0.90;0.50;;;;;;;;;;5109063;28;20055;-56
2024/04/04 03:27:43;;;;;;;0.65;0.40;;;;;;;;;;5111150;28;20039;-56
2024/04/04 03:30:08;;;;;;;0.43;0.30;;;;;;;;;;5110660;28;20106;-58
2024/04/04 03:32:34;;;;;;;1.27;0.50;;;;;;;;;;5110754;28;20044;-54
2024/04/04 03:35:00;;;;;;;0.40;0.40;;;;;;;;;;5110753;28;20075;-56
2024/04/04 03:37:25;;;;;;;0.63;0.43;;;;;;;;;;5110852;28;20031;-51
2024/04/04 03:39:52;;;;;;;0.55;0.40;;;;;;;;;;5110454;28;20043;-56
2024/04/04 03:42:18;;;;;;;0.52;0.40;;;;;;;;;;5126401;27;20118;-56
2024/04/04 03:44:43;;;;;;;0.32;0.30;;;;;;;;;;5110931;28;20118;-56
2024/04/04 03:47:09;;;;;;;0.60;0.50;;;;;;;;;;5110178;28;20071;-55
2024/04/04 03:49:34;;;;;;;0.40;0.32;;;;;;;;;;5110025;28;20047;-54
2024/04/04 03:51:59;;;;;;;0.73;0.40;;;;;;;;;;5110771;28;20040;-58
2024/04/04 03:54:25;;;;;;;0.47;0.40;;;;;;;;;;5110784;28;20035;-56
2024/04/04 03:56:50;;;;;;;1.20;0.50;;;;;;;;;;5110338;28;20027;-54
2024/04/04 03:59:15;;;;;;;1.40;0.40;;;;;;;;;;5114952;28;20040;-57
2024/04/04 04:01:41;;;;;;;0.68;0.47;;;;;;;;;;5110214;28;20039;-58
2024/04/04 04:04:06;;;;;;;0.70;0.40;;;;;;;;;;5110440;28;20110;-55
2024/04/04 04:06:31;;;;;;;0.55;0.40;;;;;;;;;;5110394;28;20038;-57
2024/04/04 04:08:57;;;;;;;1.17;0.40;;;;;;;;;;5110632;28;20036;-55
2024/04/04 04:11:22;;;;;;;1.55;0.50;;;;;;;;;;5110582;28;20042;-55
2024/04/04 04:13:47;;;;;;;0.68;0.43;;;;;;;;;;5110106;28;20031;-55
2024/04/04 04:16:16;;;;;;;0.50;0.40;;;;;;;;;;5110183;28;20167;-55
2024/04/04 04:18:42;;;;;;;0.60;0.40;;;;;;;;;;5110539;28;20032;-58
2024/04/04 04:24:02;;;;;;;0.88;0.50;;;;;;;;;;5097836;28;20608;-53
2024/04/04 04:26:28;;;;;;;0.90;0.50;;;;;;;;;;5113583;28;20047;-56
2024/04/04 04:28:53;;;;;;;0.60;0.40;;;;;;;;;;5113876;28;20173;-57
2024/04/04 04:31:26;;;;;;;0.50;0.38;;;;;;;;;;5113936;28;20032;-57
2024/04/04 04:33:52;;;;;;;0.40;0.40;;;;;;;;;;5112572;28;20046;-54
2024/04/04 04:36:18;;;;;;;0.40;0.40;;;;;;;;;;5112179;28;20042;-53
2024/04/04 04:38:44;;;;;;;0.80;0.40;;;;;;;;;;5114389;28;20040;-57
2024/04/04 04:41:10;;;;;;;2.38;0.50;;;;;;;;;;5113924;28;20171;-54
2024/04/04 04:43:35;;;;;;;2.17;0.40;;;;;;;;;;5113875;28;20042;-56
2024/04/04 04:46:00;;;;;;;0.98;0.52;;;;;;;;;;5113894;28;20036;-56
2024/04/04 04:48:26;;;;;;;0.57;0.40;;;;;;;;;;5113801;28;20047;-54
2024/04/04 04:50:51;;;;;;;1.00;0.50;;;;;;;;;;5114051;28;20118;-53
2024/04/04 04:53:17;;;;;;;0.75;0.40;;;;;;;;;;5113135;28;20031;-54
2024/04/04 04:55:46;;;;;;;0.98;0.50;;;;;;;;;;5114122;28;20020;-58
2024/04/04 04:58:11;;;;;;;0.68;0.43;;;;;;;;;;5117406;27;20035;-54
2024/04/04 05:00:37;;;;;;;1.55;0.40;;;;;;;;;;5113384;28;20112;-53
2024/04/04 05:03:03;;;;;;;0.82;0.50;;;;;;;;;;5113758;28;20038;-55
2024/04/04 05:05:28;;;;;;;1.20;0.50;;;;;;;;;;5113660;28;20039;-55
2024/04/04 05:07:54;;;;;;;0.57;0.32;;;;;;;;;;5113302;28;20083;-58
2024/04/04 05:10:19;;;;;;;1.17;0.50;;;;;;;;;;5113578;28;20077;-58
2024/04/04 05:12:44;;;;;;;0.73;0.32;;;;;;;;;;5112347;28;20039;-58
2024/04/04 05:15:10;;;;;;;0.65;0.43;;;;;;;;;;5113568;28;20035;-55
2024/04/04 05:17:35;;;;;;;1.15;0.60;;;;;;;;;;5113248;28;20394;-55
2024/04/04 05:20:00;;;;;;;1.17;0.40;;;;;;;;;;5113172;28;20063;-56
2024/04/04 05:22:27;;;;;;;1.75;0.70;;;;;;;;;;5113201;28;20032;-55
2024/04/04 05:24:53;;;;;;;1.23;0.47;;;;;;;;;;5111648;28;20040;-54
2024/04/04 05:27:18;;;;;;;1.70;0.50;;;;;;;;;;5113102;28;20036;-55
2024/04/04 05:29:44;;;;;;;1.23;0.57;;;;;;;;;;5113559;28;20054;-56
2024/04/04 05:32:09;;;;;;;1.45;0.60;;;;;;;;;;5111296;28;20371;-52
2024/04/04 05:34:34;;;;;;;1.15;0.60;;;;;;;;;;5113145;28;20611;-62
2024/04/04 05:37:00;;;;;;;2.15;0.60;;;;;;;;;;5111743;28;20098;-60
2024/04/04 05:39:25;;;;;;;1.23;0.60;;;;;;;;;;5111670;28;20019;-62
2024/04/04 05:41:52;;;;;;;1.15;0.47;;;;;;;;;;5111621;28;20519;-62
2024/04/04 05:44:17;;;;;;;1.33;0.55;;;;;;;;;;5112702;28;20043;-62
2024/04/04 05:46:43;;;;;;;0.55;0.40;;;;;;;;;;5112888;28;20042;-53
2024/04/04 05:49:08;;;;;;;0.70;0.43;;;;;;;;;;5112453;28;20040;-55
2024/04/04 05:51:33;;;;;;;1.05;0.47;;;;;;;;;;5112881;28;20490;-56
2024/04/04 05:53:59;;;;;;;1.27;0.50;;;;;;;;;;5112638;28;20467;-53
2024/04/04 05:56:24;;;;;;;2.10;0.57;;;;;;;;;;5112224;28;20895;-57
2024/04/04 05:58:50;;;;;;;1.92;0.75;;;;;;;;;;5112343;28;20463;-51
2024/04/04 06:01:15;;;;;;;1.70;0.50;;;;;;;;;;5112408;28;20074;-56
2024/04/04 06:03:43;;;;;;;1.27;0.50;;;;;;;;;;5112305;28;20031;-54
2024/04/04 06:06:12;;;;;;;0.75;0.40;;;;;;;;;;5112277;28;20023;-54
2024/04/04 06:08:38;;;;;;;1.92;0.60;;;;;;;;;;5112402;28;20110;-58
2024/04/04 06:11:03;;;;;;;2.40;0.57;;;;;;;;;;5112011;28;20039;-60
2024/04/04 06:13:29;;;;;;;1.15;0.63;;;;;;;;;;5112070;28;20027;-60
2024/04/04 06:15:55;;;;;;;1.35;0.60;;;;;;;;;;5112408;28;20031;-59
2024/04/04 06:18:20;;;;;;;1.58;0.63;;;;;;;;;;5112281;28;20398;-59
2024/04/04 06:20:46;;;;;;;1.70;0.50;;;;;;;;;;5111856;28;20458;-59
2024/04/04 06:23:12;;;;;;;1.52;0.60;;;;;;;;;;5112250;28;20518;-53
2024/04/04 06:25:37;;;;;;;0.77;0.40;;;;;;;;;;5112033;28;20042;-56
2024/04/04 06:28:02;;;;;;;1.20;0.50;;;;;;;;;;5111700;28;20145;-55
2024/04/04 06:30:28;;;;;;;0.90;0.50;;;;;;;;;;5112220;28;20379;-55
2024/04/04 06:32:53;;;;;;;1.15;0.57;;;;;;;;;;5112112;28;20390;-57
2024/04/04 06:35:18;;;;;;;1.52;0.65;;;;;;;;;;5111524;28;20497;-62
2024/04/04 06:37:47;;;;;;;1.20;0.57;;;;;;;;;;5111712;28;20043;-62
2024/04/04 06:40:13;;;;;;;1.98;0.52;;;;;;;;;;5111841;28;20126;-62
2024/04/04 06:42:39;;;;;;;1.92;0.52;;;;;;;;;;5111278;28;20048;-61
2024/04/04 06:45:05;;;;;;;0.70;0.40;;;;;;;;;;5110233;28;20044;-63
2024/04/04 06:47:30;;;;;;;2.75;0.60;;;;;;;;;;5111323;28;20035;-55
2024/04/04 06:49:57;;;;;;;3.67;0.60;;;;;;;;;;5111774;28;20448;-61
2024/04/04 06:52:22;;;;;;;0.82;0.40;;;;;;;;;;5111175;28;20035;-61
2024/04/04 06:54:47;;;;;;;2.17;0.80;;;;;;;;;;5111594;28;20488;-60
2024/04/04 06:57:13;;;;;;;1.30;0.52;;;;;;;;;;5111457;28;20047;-61
2024/04/04 06:59:39;;;;;;;2.40;0.75;;;;;;;;;;5118479;27;20027;-59
2024/04/04 07:02:05;;;;;;;0.77;0.40;;;;;;;;;;5111247;28;20035;-60
2024/04/04 07:04:30;;;;;;;1.77;0.55;;;;;;;;;;5111304;27;20076;-62
2024/04/04 07:06:55;;;;;;;1.35;0.50;;;;;;;;;;5111092;28;20126;-62
2024/04/04 07:09:21;;;;;;;0.52;0.40;;;;;;;;;;5111246;28;20039;-61
2024/04/04 07:11:46;;;;;;;1.95;0.60;;;;;;;;;;5111397;28;20031;-61
2024/04/04 07:14:12;;;;;;;1.30;0.60;;;;;;;;;;5111003;28;20027;-61
2024/04/04 07:16:37;;;;;;;6.57;0.75;;;;;;;;;;5110908;28;20043;-61
2024/04/04 07:19:02;;;;;;;1.15;0.40;;;;;;;;;;5111175;28;20378;-60
2024/04/04 07:21:28;;;;;;;1.98;0.50;;;;;;;;;;5111283;28;20115;-56
2024/04/04 07:23:53;;;;;;;2.15;0.75;;;;;;;;;;5110586;28;20066;-57
2024/04/04 07:26:18;;;;;;;1.98;0.63;;;;;;;;;;5111353;28;20073;-61
2024/04/04 07:28:44;;;;;;;2.08;0.60;;;;;;;;;;5111002;28;20035;-60
2024/04/04 07:31:09;;;;;;;2.17;0.63;;;;;;;;;;5110557;28;20044;-60
2024/04/04 07:33:34;;;;;;;2.58;0.55;;;;;;;;;;5110657;28;20027;-61
2024/04/04 07:36:00;;;;;;;3.70;0.50;;;;;;;;;;5110759;28;20077;-60
2024/04/04 07:38:25;;;;;;;0.80;0.40;;;;;;;;;;5109190;28;20058;-61
2024/04/04 07:40:50;;;;;;;1.10;0.60;;;;;;;;;;5110628;28;20065;-59
2024/04/04 07:43:18;;;;;;;1.10;0.60;;;;;;;;;;5109511;28;20032;-61
2024/04/04 07:45:43;;;;;;;1.35;0.57;;;;;;;;;;5099857;28;20089;-61
2024/04/04 07:48:10;;;;;;;2.78;0.60;;;;;;;;;;5109791;28;20035;-61
2024/04/04 07:50:37;;;;;;;1.90;0.75;;;;;;;;;;5098768;28;20039;-61
2024/04/04 07:53:03;;;;;;;1.15;0.50;;;;;;;;;;5109712;28;20039;-59
2024/04/04 07:55:29;;;;;;;5.95;0.80;;;;;;;;;;5109966;28;20065;-61
2024/04/04 07:57:54;;;;;;;1.50;0.70;;;;;;;;;;5111504;28;20463;-61
2024/04/04 08:00:21;;;;;;;2.35;0.73;;;;;;;;;;5110902;28;20034;-61
2024/04/04 08:02:46;;;;;;;1.13;0.60;;;;;;;;;;5113111;28;20064;-61
2024/04/04 08:05:12;;;;;;;2.45;0.50;;;;;;;;;;5114440;28;20024;-59
2024/04/04 08:07:38;;;;;;;1.10;0.60;;;;;;;;;;5114615;28;20122;-62
2024/04/04 08:10:08;;;;;;;1.77;0.70;;;;;;;;;;5114671;28;20027;-61
2024/04/04 08:12:35;;;;;;;1.73;0.77;;;;;;;;;;5096560;28;20513;-59
2024/04/04 08:15:03;;;;;;;1.50;0.60;;;;;;;;;;5114411;28;21277;-59
2024/04/04 08:17:33;;;;;;;1.38;0.70;;;;;;;;;;5114586;28;20105;-61
2024/04/04 08:20:02;;;;;;;2.25;0.70;;;;;;;;;;5120280;27;20122;-63
2024/04/04 08:22:27;;;;;;;1.23;0.63;;;;;;;;;;5112664;28;20031;-62
2024/04/04 08:24:53;;;;;;;3.42;0.70;;;;;;;;;;5114107;28;20462;-62
2024/04/04 08:27:20;;;;;;;1.92;0.70;;;;;;;;;;5113617;28;20476;-61
2024/04/04 08:29:48;;;;;;;1.95;0.75;;;;;;;;;;5114158;28;20032;-60
2024/04/04 08:32:14;;;;;;;1.25;0.50;;;;;;;;;;5113667;28;20223;-62
2024/04/04 08:34:40;;;;;;;2.85;0.75;;;;;;;;;;5111826;28;20115;-61
2024/04/04 08:37:05;;;;;;;1.95;0.63;;;;;;;;;;5111773;28;20502;-56
2024/04/04 08:39:30;;;;;;;2.42;0.70;;;;;;;;;;5110947;28;20435;-56
2024/04/04 08:41:56;;;;;;;2.08;0.60;;;;;;;;;;5111866;28;20060;-57
2024/04/04 08:44:21;;;;;;;1.88;0.70;;;;;;;;;;5112258;28;20497;-56
2024/04/04 08:46:47;;;;;;;1.35;0.70;;;;;;;;;;5112237;28;20039;-55
2024/04/04 08:49:14;;;;;;;1.83;0.70;;;;;;;;;;5110605;28;20075;-57
2024/04/04 08:51:39;;;;;;;3.35;0.70;;;;;;;;;;5113045;28;20044;-55
2024/04/04 08:54:04;;;;;;;1.33;0.63;;;;;;;;;;5112571;28;20120;-52
2024/04/04 08:56:30;;;;;;;2.75;0.80;;;;;;;;;;5113681;28;20096;-56
2024/04/04 08:58:56;;;;;;;1.90;0.88;;;;;;;;;;5114381;27;20031;-53
2024/04/04 09:01:21;;;;;;;1.80;0.98;;;;;;;;;;5113795;28;20036;-62
2024/04/04 09:03:46;;;;;;;2.28;0.95;;;;;;;;;;5113682;28;20051;-61
2024/04/04 09:06:17;;;;;;;2.97;0.93;;;;;;;;;;5113322;28;20023;-59
2024/04/04 09:08:42;;;;;;;2.35;1.00;;;;;;;;;;5113587;28;20027;-62
2024/04/04 09:11:08;;;;;;;2.88;1.10;;;;;;;;;;5113445;28;20047;-58
2024/04/04 09:13:34;;;;;;;2.47;0.98;;;;;;;;;;5113319;28;20035;-62
2024/04/04 09:16:00;;;;;;;3.88;0.90;;;;;;;;;;5113381;28;20042;-61
2024/04/04 09:18:25;;;;;;;2.28;0.90;;;;;;;;;;5113438;28;20039;-60
2024/04/04 09:20:51;;;;;;;1.70;0.82;;;;;;;;;;5113136;28;20523;-61
2024/04/04 09:23:17;;;;;;;2.70;0.90;;;;;;;;;;5112869;28;20036;-61
2024/04/04 09:25:42;;;;;;;2.97;1.08;;;;;;;;;;5113055;28;20118;-61
2024/04/04 09:28:09;;;;;;;3.40;1.05;;;;;;;;;;5113209;28;20023;-54
2024/04/04 09:30:36;;;;;;;3.50;0.88;;;;;;;;;;5112680;28;20118;-56
2024/04/04 09:33:05;;;;;;;2.25;0.95;;;;;;;;;;5113305;28;20043;-55
2024/04/04 09:35:30;;;;;;;3.42;1.00;;;;;;;;;;5111876;28;20023;-55
2024/04/04 09:37:56;;;;;;;4.15;1.00;;;;;;;;;;5112550;28;20047;-57
2024/04/04 09:40:22;;;;;;;2.20;0.80;;;;;;;;;;5127929;27;20039;-56
2024/04/04 09:42:47;;;;;;;1.92;0.85;;;;;;;;;;5112950;28;20482;-56
2024/04/04 09:45:14;;;;;;;2.08;0.90;;;;;;;;;;5108624;28;20027;-55
2024/04/04 09:47:47;;;;;;;2.55;0.90;;;;;;;;;;5110638;28;20047;-61
2024/04/04 09:50:15;;;;;;;2.85;1.00;;;;;;;;;;5110445;28;20403;-60
2024/04/04 09:52:40;;;;;;;2.13;0.93;;;;;;;;;;5127492;27;20075;-57
2024/04/04 09:55:16;;;;;;;5.25;1.25;;;;;;;;;;5111344;28;20062;-60
2024/04/04 09:57:42;;;;;;;1.80;0.85;;;;;;;;;;5118806;27;20040;-62
2024/04/04 10:00:16;;;;;;;1.92;1.00;;;;;;;;;;5110654;27;20038;-60
2024/04/04 10:02:44;;;;;;;1.88;0.70;;;;;;;;;;5109713;28;20031;-60
2024/04/04 10:05:19;;;;;;;2.25;0.95;;;;;;;;;;5108910;28;20039;-58
2024/04/04 10:07:48;;;;;;;2.75;1.02;;;;;;;;;;5110224;28;20035;-61
2024/04/04 10:10:26;;;;;;;2.20;0.75;;;;;;;;;;5109046;28;20042;-59
2024/04/04 10:12:52;;;;;;;1.92;0.82;;;;;;;;;;5110953;28;20144;-59
2024/04/04 10:15:19;;;;;;;3.17;1.00;;;;;;;;;;5111302;28;20032;-60
2024/04/04 10:17:54;;;;;;;2.67;0.70;;;;;;;;;;5111309;28;20035;-61
2024/04/04 10:20:22;;;;;;;2.72;0.80;;;;;;;;;;5107382;27;20092;-60
2024/04/04 10:23:05;;;;;;;4.70;1.00;;;;;;;;;;5109087;28;20542;-61
2024/04/04 10:25:31;;;;;;;1.92;0.68;;;;;;;;;;5105510;28;20081;-63
2024/04/04 10:28:09;;;;;;;1.48;0.65;;;;;;;;;;5109885;28;20428;-59
2024/04/04 10:30:35;;;;;;;1.58;0.77;;;;;;;;;;5111093;28;20055;-63
2024/04/04 10:33:15;;;;;;;1.83;0.70;;;;;;;;;;5109420;28;20143;-62
2024/04/04 10:35:40;;;;;;;3.25;1.17;;;;;;;;;;5125826;27;20352;-62
2024/04/04 10:38:10;;;;;;;2.78;0.88;;;;;;;;;;5109640;28;20510;-63
2024/04/04 10:40:36;;;;;;;7.18;1.23;;;;;;;;;;5109315;28;20128;-60
2024/04/04 10:43:08;;;;;;;1.90;0.80;;;;;;;;;;5109107;28;20595;-63
2024/04/04 10:45:37;;;;;;;2.00;0.73;;;;;;;;;;5106489;28;20055;-61
2024/04/04 10:48:03;;;;;;;2.92;0.90;;;;;;;;;;5110630;28;20101;-60
2024/04/04 10:50:30;;;;;;;1.65;0.70;;;;;;;;;;5109461;28;20043;-61
2024/04/04 10:52:55;;;;;;;2.47;0.90;;;;;;;;;;5109274;28;20421;-61
2024/04/04 10:55:21;;;;;;;2.20;0.70;;;;;;;;;;5109292;28;20043;-62
2024/04/04 10:57:51;;;;;;;2.13;0.77;;;;;;;;;;5111294;27;20068;-62
2024/04/04 11:00:17;;;;;;;3.30;0.93;;;;;;;;;;5116997;27;20426;-62
2024/04/04 11:02:52;;;;;;;2.05;0.77;;;;;;;;;;5110682;28;20042;-62
2024/04/04 11:05:18;;;;;;;2.65;0.80;;;;;;;;;;5108628;28;20077;-61
2024/04/04 11:07:45;;;;;;;2.33;0.77;;;;;;;;;;5108502;28;20051;-63
2024/04/04 11:10:11;;;;;;;3.03;0.90;;;;;;;;;;5110222;28;20053;-61
2024/04/04 11:12:37;;;;;;;1.50;0.60;;;;;;;;;;5109969;28;20507;-60
2024/04/04 11:15:05;;;;;;;2.38;0.70;;;;;;;;;;5110146;28;20043;-62
2024/04/04 11:17:31;;;;;;;2.70;0.70;;;;;;;;;;5125462;27;20479;-62
2024/04/04 11:20:08;;;;;;;1.88;0.75;;;;;;;;;;5109772;28;20545;-62
2024/04/04 11:22:36;;;;;;;2.78;0.85;;;;;;;;;;5109877;28;20040;-62
2024/04/04 11:25:04;;;;;;;2.53;0.98;;;;;;;;;;5110101;28;20039;-61
2024/04/04 11:27:29;;;;;;;2.00;0.80;;;;;;;;;;5108193;28;20061;-62
2024/04/04 11:29:54;;;;;;;2.05;0.80;;;;;;;;;;5109544;28;20566;-62
2024/04/04 11:32:21;;;;;;;1.20;0.60;;;;;;;;;;5110052;28;20058;-61
2024/04/04 11:34:46;;;;;;;2.30;0.80;;;;;;;;;;5109395;28;20047;-63
2024/04/04 11:37:12;;;;;;;1.83;0.80;;;;;;;;;;5109074;28;20044;-54
2024/04/04 11:39:37;;;;;;;3.47;1.00;;;;;;;;;;5109796;28;20447;-53
2024/04/04 11:42:03;;;;;;;2.35;0.98;;;;;;;;;;5109220;28;20098;-52
2024/04/04 11:44:28;;;;;;;1.90;0.80;;;;;;;;;;5109289;28;20119;-51
2024/04/04 11:46:54;;;;;;;1.90;0.70;;;;;;;;;;5109424;28;20185;-54
2024/04/04 11:49:19;;;;;;;2.13;0.80;;;;;;;;;;5108567;28;20044;-51
2024/04/04 11:51:45;;;;;;;2.22;0.80;;;;;;;;;;5109249;28;20054;-57
2024/04/04 11:54:10;;;;;;;1.42;0.68;;;;;;;;;;5097905;28;20031;-60
2024/04/04 11:56:37;;;;;;;0.98;0.50;;;;;;;;;;5105558;28;20095;-60
2024/04/04 11:59:02;;;;;;;2.42;0.70;;;;;;;;;;5105712;28;20115;-61
2024/04/04 12:01:27;;;;;;;2.15;0.80;;;;;;;;;;5107882;28;20745;-58
2024/04/04 12:03:53;;;;;;;2.40;0.90;;;;;;;;;;5108690;28;20526;-61
2024/04/04 12:06:18;;;;;;;3.22;1.02;;;;;;;;;;5109251;28;20043;-56
2024/04/04 12:08:43;;;;;;;1.77;0.70;;;;;;;;;;5108473;28;20096;-62
2024/04/04 12:11:09;;;;;;;2.60;0.90;;;;;;;;;;5107508;28;20028;-60
2024/04/04 12:13:35;;;;;;;2.03;0.65;;;;;;;;;;5104347;28;20066;-61
2024/04/04 12:16:01;;;;;;;2.70;0.65;;;;;;;;;;5109120;28;20043;-61
2024/04/04 12:21:16;;;;;;;3.10;0.90;;;;;;;;;;5108588;28;20054;-58
2024/04/04 12:23:41;;;;;;;1.55;0.60;;;;;;;;;;5109127;28;20027;-59
2024/04/04 12:26:07;;;;;;;4.07;0.90;;;;;;;;;;5108433;28;20054;-61
2024/04/04 12:28:33;;;;;;;2.13;0.80;;;;;;;;;;5108315;28;20031;-60
2024/04/04 12:30:58;;;;;;;1.75;0.60;;;;;;;;;;5106750;28;20042;-61
2024/04/04 12:33:23;;;;;;;2.40;0.80;;;;;;;;;;5106588;28;20031;-61
2024/04/04 12:35:53;;;;;;;2.83;0.88;;;;;;;;;;5106011;28;20549;-61
2024/04/04 12:38:19;;;;;;;2.88;1.02;;;;;;;;;;5105169;28;20615;-60
2024/04/04 12:40:44;;;;;;;2.70;0.80;;;;;;;;;;5107400;28;20093;-55
2024/04/04 12:43:09;;;;;;;3.08;0.75;;;;;;;;;;5108856;28;20698;-54
2024/04/04 12:45:35;;;;;;;2.33;0.75;;;;;;;;;;5108261;28;20043;-56
2024/04/04 12:48:00;;;;;;;1.98;0.70;;;;;;;;;;5112386;28;20462;-54
2024/04/04 12:50:25;;;;;;;3.42;0.80;;;;;;;;;;5111847;28;20044;-54
2024/04/04 12:52:53;;;;;;;1.95;0.70;;;;;;;;;;5112502;28;20039;-52
2024/04/04 12:55:21;;;;;;;1.63;0.65;;;;;;;;;;5112780;28;20031;-60
2024/04/04 12:57:48;;;;;;;2.40;0.63;;;;;;;;;;5129812;27;20080;-60
2024/04/04 13:00:15;;;;;;;1.88;0.70;;;;;;;;;;5114905;27;20047;-60
2024/04/04 13:02:41;;;;;;;1.88;0.82;;;;;;;;;;5128126;27;20547;-58
2024/04/04 13:05:06;;;;;;;1.25;0.57;;;;;;;;;;5112238;28;20046;-61
2024/04/04 13:07:32;;;;;;;1.98;0.70;;;;;;;;;;5112387;28;20039;-62
2024/04/04 13:09:57;;;;;;;2.03;0.57;;;;;;;;;;5112848;28;20043;-60
2024/04/04 13:12:23;;;;;;;3.08;0.82;;;;;;;;;;5112081;28;20046;-61
2024/04/04 13:14:49;;;;;;;1.38;0.60;;;;;;;;;;5113039;28;20039;-61
2024/04/04 13:17:15;;;;;;;2.15;0.70;;;;;;;;;;5112273;28;20517;-56
2024/04/04 13:19:40;;;;;;;1.85;0.70;;;;;;;;;;5111416;28;20062;-56
2024/04/04 13:22:06;;;;;;;2.47;0.93;;;;;;;;;;5112125;28;20047;-57
2024/04/04 13:24:31;;;;;;;1.85;0.70;;;;;;;;;;5112388;28;20032;-56
2024/04/04 13:26:56;;;;;;;2.75;0.88;;;;;;;;;;5112485;28;20393;-55
2024/04/04 13:29:22;;;;;;;1.63;0.57;;;;;;;;;;5112088;28;20587;-55
2024/04/04 13:31:47;;;;;;;3.72;0.75;;;;;;;;;;5111714;28;20685;-55
2024/04/04 13:34:12;;;;;;;3.60;0.82;;;;;;;;;;5112337;28;20470;-57
2024/04/04 13:36:38;;;;;;;1.80;0.75;;;;;;;;;;5111406;28;20120;-57
2024/04/04 13:39:05;;;;;;;3.25;0.80;;;;;;;;;;5111981;28;20047;-54
2024/04/04 13:41:30;;;;;;;2.15;1.02;;;;;;;;;;5111441;28;20462;-56
2024/04/04 13:43:56;;;;;;;2.75;0.80;;;;;;;;;;5111366;28;20043;-52
2024/04/04 13:46:21;;;;;;;2.97;0.80;;;;;;;;;;5111944;28;20043;-56
2024/04/04 13:48:47;;;;;;;3.22;0.90;;;;;;;;;;5112135;28;20059;-52
2024/04/04 13:51:12;;;;;;;1.55;0.65;;;;;;;;;;5111269;28;20622;-52
2024/04/04 13:53:37;;;;;;;2.53;0.70;;;;;;;;;;5111374;28;20068;-61
2024/04/04 13:56:03;;;;;;;2.28;0.80;;;;;;;;;;5111642;28;20032;-62
2024/04/04 13:58:28;;;;;;;3.22;0.55;;;;;;;;;;5106683;27;20031;-60
2024/04/04 14:00:54;;;;;;;1.55;0.60;;;;;;;;;;5110611;28;20035;-61
2024/04/04 14:03:19;;;;;;;2.63;0.77;;;;;;;;;;5111970;28;20704;-62
2024/04/04 14:05:44;;;;;;;2.85;0.90;;;;;;;;;;5111456;28;20042;-61
2024/04/04 14:08:10;;;;;;;2.20;0.90;;;;;;;;;;5111359;28;20059;-63
2024/04/04 14:10:35;;;;;;;1.70;0.60;;;;;;;;;;5110910;28;20089;-60
2024/04/04 14:13:01;;;;;;;4.03;0.88;;;;;;;;;;5111250;28;20038;-63
2024/04/04 14:15:26;;;;;;;3.13;0.70;;;;;;;;;;5110964;28;20523;-63
2024/04/04 14:17:51;;;;;;;1.85;0.80;;;;;;;;;;5111262;28;20096;-61
2024/04/04 14:20:17;;;;;;;1.00;0.57;;;;;;;;;;5111514;28;20032;-61
2024/04/04 14:22:42;;;;;;;4.47;0.80;;;;;;;;;;5110339;28;20040;-62
2024/04/04 14:25:08;;;;;;;1.88;0.60;;;;;;;;;;5111382;28;20032;-60
2024/04/04 14:27:36;;;;;;;2.78;0.63;;;;;;;;;;5110939;28;20034;-62
2024/04/04 14:30:01;;;;;;;1.80;0.60;;;;;;;;;;5111111;28;20057;-63
2024/04/04 14:32:26;;;;;;;1.25;0.60;;;;;;;;;;5110210;28;20028;-62
2024/04/04 14:34:53;;;;;;;3.05;0.70;;;;;;;;;;5111279;28;20152;-60
2024/04/04 14:37:18;;;;;;;2.60;1.00;;;;;;;;;;5109529;28;20039;-59
2024/04/04 14:39:45;;;;;;;2.03;0.80;;;;;;;;;;5110433;28;20399;-61
2024/04/04 14:42:11;;;;;;;2.72;0.68;;;;;;;;;;5110848;28;20099;-62